Terminal Aerodrome Forecast
Issued by NWS Cleveland, OH

Home | Current Version | Previous Version | Text Only | Print | Product List | Glossary On
Versions: 1 2 3 4 5 6 7 8 9 10 11 12 13 14 15 16 17 18
000
FTUS41 KCLE 020500
TAFYNG
TAF
KYNG 020520Z 0206/0306 18010KT P6SM SCT100 BKN250
     FM021700 18015G25KT P6SM VCSH BKN040 OVC080
     FM022000 20015G25KT P6SM -SHRA SCT025 OVC050
     FM022300 20015KT 5SM -RA BR OVC025=

USA.gov is the U.S. government's official web portal to all federal, state and local government web resources and services.